Messwerte Wainwright

Temperatur

Temperatur
°C
1575507600 16.00 16.00 -17
1575511200 17.00 17.00 -17
1575514800 18.00 18.00 -16
1575518400 19.00 19.00 -15
1575522000 20.00 20.00 -15
1575525600 21.00 21.00 -14
1575529200 22.00 22.00 -14
1575532800 23.00 23.00 -14
1575536400 0.00 0.00 -14
1575540000 1.00 1.00 -14
1575543600 2.00 2.00 -15
1575547200 3.00 3.00 -14
1575550800 4.00 4.00
1575554400 5.00 5.00 -15
1575558000 6.00 6.00 -16
1575561600 7.00 7.00 -16
1575565200 8.00 8.00 -16
1575568800 9.00 9.00 -16
1575572400 10.00 10.00
1575576000 11.00 11.00
1575579600 12.00 12.00
1575583200 13.00 13.00
1575586800 14.00 14.00 -20
1575590400 15.00 15.00

Wir danken unserem Partner:

Aktuellste Messwerte

Wettercharakter
Wetter: bedeckt
Temperatur
-21 °C
Feuchtigkeit
85 %
Wind
5 km/hWindrichtung: Südost
Luftdruck
1020 hPa
Messzeit: 5. Dezember 2019, 16.00Datenquelle: METAR

Weitere Messstationen in der Nähe

Messstation Temperatur Entfernung
Atqasuk -21 °C 96 km
Barrow -17 °C 136 km
Cape Lisburne -16 °C 306 km
Nuiqsut -20 °C 337 km
Deadhorse -19 °C 338 km
Noatak -33 °C 361 km
Point Hope -20 °C 367 km

Wind

Windrichtung Böen Mittelwind
° km/h km/h
1575507600 16.00 15.00 - 16.00 130° 10
1575511200 17.00 16.00 - 17.00 120° 10
1575514800 18.00 17.00 - 18.00 130° 5
1575518400 19.00 18.00 - 19.00 140° 5
1575522000 20.00 19.00 - 20.00 150° 10
1575525600 21.00 20.00 - 21.00 160° 5
1575529200 22.00 21.00 - 22.00 130° 5
1575532800 23.00 22.00 - 23.00 140° 5
1575536400 0.00 23.00 - 0.00 140° 10
1575540000 1.00 0.00 - 1.00 140° 10
1575543600 2.00 1.00 - 2.00 150° 15
1575547200 3.00 2.00 - 3.00 140° 5
1575550800 4.00 3.00 - 4.00
1575554400 5.00 4.00 - 5.00 140° 10
1575558000 6.00 5.00 - 6.00 130° 15
1575561600 7.00 6.00 - 7.00 150° 10
1575565200 8.00 7.00 - 8.00 150° 15
1575568800 9.00 8.00 - 9.00 170° 10
1575572400 10.00 9.00 - 10.00
1575576000 11.00 10.00 - 11.00
1575579600 12.00 11.00 - 12.00
1575583200 13.00 12.00 - 13.00
1575586800 14.00 13.00 - 14.00 150° 10
1575590400 15.00 14.00 - 15.00

Ihre Wetterstation

Fehlt Ihre Wetterstation auf unserem Portal?

Schreiben Sie an network@meteonews.ch

Klima

Wann ist es am wärmsten? Wann regnet es am wenigsten? Unsere Klimadaten geben Auskunft.